Terminal Aerodrome Forecast
Issued by NWS

Home | Current Version | Previous Version | Text Only | Print | Product List | Glossary On
Versions: 1 2 3 4 5 6 7 8 9 10 11 12 13 14 15 16 17 18 19
000
FTUS43 KBIS 072133 AAA
TAFDIK
TAF AMD
KDIK 072133Z 0722/0818 16012KT P6SM VCTS SCT070CB BKN100
      TEMPO 0722/0724 2SM TSRA BKN030CB
     FM080300 17005KT P6SM SCT060 BKN100
     FM080600 VRB04KT 5SM BR SCT100
     FM081400 02008KT P6SM SCT100=

USA.gov is the U.S. government's official web portal to all federal, state and local government web resources and services.